sensor_id;sensor_type;location;lat;lon;timestamp;pressure;altitude;pressure_sealevel;temperature;humidity
45888;BME280;31595;51.418;7.572;2023-03-03T00:01:31;100970.00;;;5.15;60.45
45888;BME280;31595;51.418;7.572;2023-03-03T00:03:59;100966.44;;;5.20;60.92
45888;BME280;31595;51.418;7.572;2023-03-03T00:06:26;100966.19;;;5.21;60.41
45888;BME280;31595;51.418;7.572;2023-03-03T00:08:57;100979.16;;;5.21;59.92
45888;BME280;31595;51.418;7.572;2023-03-03T00:11:24;100987.41;;;5.16;60.52
45888;BME280;31595;51.418;7.572;2023-03-03T00:13:55;100984.91;;;5.14;60.08
45888;BME280;31595;51.418;7.572;2023-03-03T00:16:27;100987.06;;;5.07;59.47
45888;BME280;31595;51.418;7.572;2023-03-03T00:18:57;100992.25;;;4.98;60.40
45888;BME280;31595;51.418;7.572;2023-03-03T00:21:28;100982.84;;;4.99;60.13
45888;BME280;31595;51.418;7.572;2023-03-03T00:24:29;100990.31;;;4.99;60.79
45888;BME280;31595;51.418;7.572;2023-03-03T00:27:17;100996.94;;;4.98;60.82
45888;BME280;31595;51.418;7.572;2023-03-03T00:29:52;100994.75;;;5.00;60.38
45888;BME280;31595;51.418;7.572;2023-03-03T00:32:23;100991.94;;;4.95;60.50
45888;BME280;31595;51.418;7.572;2023-03-03T00:34:54;100979.53;;;4.97;60.65
45888;BME280;31595;51.418;7.572;2023-03-03T00:37:27;100977.00;;;4.91;60.13
45888;BME280;31595;51.418;7.572;2023-03-03T00:40:15;100980.59;;;4.91;61.19
45888;BME280;31595;51.418;7.572;2023-03-03T00:42:49;100987.22;;;4.90;60.36
45888;BME280;31595;51.418;7.572;2023-03-03T00:45:25;100983.47;;;4.74;60.33
45888;BME280;31595;51.418;7.572;2023-03-03T00:47:53;100993.19;;;4.77;61.07
45888;BME280;31595;51.418;7.572;2023-03-03T00:50:31;100990.47;;;4.82;61.22
45888;BME280;31595;51.418;7.572;2023-03-03T00:53:02;100984.13;;;4.86;60.05
45888;BME280;31595;51.418;7.572;2023-03-03T00:55:31;100992.97;;;4.83;60.23
45888;BME280;31595;51.418;7.572;2023-03-03T00:57:59;100989.88;;;4.80;60.07
45888;BME280;31595;51.418;7.572;2023-03-03T01:00:27;100991.19;;;4.72;60.62
45888;BME280;31595;51.418;7.572;2023-03-03T01:03:05;100987.25;;;4.63;60.91
45888;BME280;31595;51.418;7.572;2023-03-03T01:05:33;100991.88;;;4.57;60.45
45888;BME280;31595;51.418;7.572;2023-03-03T01:08:03;100979.34;;;4.44;61.25
45888;BME280;31595;51.418;7.572;2023-03-03T01:10:34;100983.63;;;4.30;61.94
45888;BME280;31595;51.418;7.572;2023-03-03T01:13:03;100987.75;;;4.27;62.25
45888;BME280;31595;51.418;7.572;2023-03-03T01:15:31;100984.19;;;4.32;62.88
45888;BME280;31595;51.418;7.572;2023-03-03T01:17:59;100990.59;;;4.38;62.86
45888;BME280;31595;51.418;7.572;2023-03-03T01:20:26;100992.31;;;4.44;62.32
45888;BME280;31595;51.418;7.572;2023-03-03T01:22:57;100999.78;;;4.43;62.27
45888;BME280;31595;51.418;7.572;2023-03-03T01:25:24;100999.03;;;4.53;62.92
45888;BME280;31595;51.418;7.572;2023-03-03T01:27:53;100989.41;;;4.56;62.26
45888;BME280;31595;51.418;7.572;2023-03-03T01:30:21;100992.53;;;4.64;61.35
45888;BME280;31595;51.418;7.572;2023-03-03T01:32:48;100993.59;;;4.63;61.10
45888;BME280;31595;51.418;7.572;2023-03-03T01:35:16;100991.66;;;4.64;62.42
45888;BME280;31595;51.418;7.572;2023-03-03T01:37:43;100989.47;;;4.66;61.82
45888;BME280;31595;51.418;7.572;2023-03-03T01:40:15;100990.03;;;4.68;62.63
45888;BME280;31595;51.418;7.572;2023-03-03T01:42:42;100999.19;;;4.68;61.42
45888;BME280;31595;51.418;7.572;2023-03-03T01:45:20;100982.91;;;4.72;62.18
45888;BME280;31595;51.418;7.572;2023-03-03T01:47:53;100988.50;;;4.77;61.14
45888;BME280;31595;51.418;7.572;2023-03-03T01:50:30;100973.59;;;4.78;61.53
45888;BME280;31595;51.418;7.572;2023-03-03T01:52:59;100987.84;;;4.65;61.32
45888;BME280;31595;51.418;7.572;2023-03-03T01:55:32;100992.47;;;4.59;61.07
45888;BME280;31595;51.418;7.572;2023-03-03T01:58:03;100983.09;;;4.60;61.16
45888;BME280;31595;51.418;7.572;2023-03-03T02:00:36;100979.81;;;4.63;61.80
45888;BME280;31595;51.418;7.572;2023-03-03T02:03:04;101001.66;;;4.70;61.76
45888;BME280;31595;51.418;7.572;2023-03-03T02:05:32;101000.31;;;4.73;61.60
45888;BME280;31595;51.418;7.572;2023-03-03T02:08:02;100992.34;;;4.76;60.76
45888;BME280;31595;51.418;7.572;2023-03-03T02:10:30;100993.47;;;4.80;61.00
45888;BME280;31595;51.418;7.572;2023-03-03T02:12:58;100982.19;;;4.82;61.90
45888;BME280;31595;51.418;7.572;2023-03-03T02:15:27;100974.16;;;4.80;60.70
45888;BME280;31595;51.418;7.572;2023-03-03T02:18:02;100978.75;;;4.70;60.60
45888;BME280;31595;51.418;7.572;2023-03-03T02:20:41;100968.78;;;4.63;61.12
45888;BME280;31595;51.418;7.572;2023-03-03T02:23:14;100966.78;;;4.54;61.65
45888;BME280;31595;51.418;7.572;2023-03-03T02:25:47;100962.31;;;4.47;62.72
45888;BME280;31595;51.418;7.572;2023-03-03T02:28:20;100961.25;;;4.54;62.23
45888;BME280;31595;51.418;7.572;2023-03-03T02:30:48;100972.91;;;4.61;61.83
45888;BME280;31595;51.418;7.572;2023-03-03T02:33:16;100973.78;;;4.66;61.84
45888;BME280;31595;51.418;7.572;2023-03-03T02:35:43;100976.00;;;4.70;61.62
45888;BME280;31595;51.418;7.572;2023-03-03T02:38:17;100984.59;;;4.73;61.59
45888;BME280;31595;51.418;7.572;2023-03-03T02:40:55;100995.94;;;4.77;62.00
45888;BME280;31595;51.418;7.572;2023-03-03T02:43:32;100991.25;;;4.77;62.05
45888;BME280;31595;51.418;7.572;2023-03-03T02:46:03;100986.78;;;4.71;61.05
45888;BME280;31595;51.418;7.572;2023-03-03T02:48:31;100987.03;;;4.70;60.90
45888;BME280;31595;51.418;7.572;2023-03-03T02:50:58;100999.19;;;4.68;61.90
45888;BME280;31595;51.418;7.572;2023-03-03T02:53:26;100992.81;;;4.68;61.42
45888;BME280;31595;51.418;7.572;2023-03-03T02:55:53;100982.25;;;4.60;62.23
45888;BME280;31595;51.418;7.572;2023-03-03T02:58:37;100986.66;;;4.56;62.55
45888;BME280;31595;51.418;7.572;2023-03-03T03:01:04;100991.22;;;4.45;62.10
45888;BME280;31595;51.418;7.572;2023-03-03T03:03:32;100984.31;;;4.42;62.36
45888;BME280;31595;51.418;7.572;2023-03-03T03:05:59;100984.31;;;4.42;62.98
45888;BME280;31595;51.418;7.572;2023-03-03T03:08:27;100983.22;;;4.43;62.53
45888;BME280;31595;51.418;7.572;2023-03-03T03:10:56;100985.06;;;4.33;62.00
45888;BME280;31595;51.418;7.572;2023-03-03T03:13:24;100985.91;;;4.38;62.79
45888;BME280;31595;51.418;7.572;2023-03-03T03:15:53;100980.97;;;4.40;63.42
45888;BME280;31595;51.418;7.572;2023-03-03T03:18:20;100995.66;;;4.46;62.48
45888;BME280;31595;51.418;7.572;2023-03-03T03:20:48;100992.09;;;4.51;61.83
45888;BME280;31595;51.418;7.572;2023-03-03T03:23:16;100999.19;;;4.41;62.71
45888;BME280;31595;51.418;7.572;2023-03-03T03:25:51;101004.66;;;4.36;63.24
45888;BME280;31595;51.418;7.572;2023-03-03T03:28:18;100991.06;;;4.30;62.73
45888;BME280;31595;51.418;7.572;2023-03-03T03:30:46;101000.06;;;4.20;62.43
45888;BME280;31595;51.418;7.572;2023-03-03T03:33:15;100982.06;;;4.12;62.70
45888;BME280;31595;51.418;7.572;2023-03-03T03:35:42;100999.06;;;4.04;63.76
45888;BME280;31595;51.418;7.572;2023-03-03T03:38:12;101005.34;;;3.99;64.06
45888;BME280;31595;51.418;7.572;2023-03-03T03:40:40;100993.22;;;4.00;63.55
45888;BME280;31595;51.418;7.572;2023-03-03T03:43:08;101002.16;;;4.07;63.63
45888;BME280;31595;51.418;7.572;2023-03-03T03:45:35;101001.56;;;4.05;64.18
45888;BME280;31595;51.418;7.572;2023-03-03T03:48:03;101013.22;;;4.13;63.84
45888;BME280;31595;51.418;7.572;2023-03-03T03:50:32;101013.09;;;4.24;64.36
45888;BME280;31595;51.418;7.572;2023-03-03T03:52:59;101018.97;;;4.33;62.94
45888;BME280;31595;51.418;7.572;2023-03-03T03:55:26;101013.78;;;4.37;64.13
45888;BME280;31595;51.418;7.572;2023-03-03T03:57:54;101018.19;;;4.38;63.16
45888;BME280;31595;51.418;7.572;2023-03-03T04:00:22;101017.94;;;4.39;63.42
45888;BME280;31595;51.418;7.572;2023-03-03T04:02:50;101021.31;;;4.46;63.12
45888;BME280;31595;51.418;7.572;2023-03-03T04:05:18;101021.06;;;4.48;63.30
45888;BME280;31595;51.418;7.572;2023-03-03T04:07:47;101011.16;;;4.52;63.42
45888;BME280;31595;51.418;7.572;2023-03-03T04:10:15;101021.38;;;4.52;63.33
45888;BME280;31595;51.418;7.572;2023-03-03T04:12:43;101011.78;;;4.59;61.86
45888;BME280;31595;51.418;7.572;2023-03-03T04:15:12;101004.38;;;4.65;62.97
45888;BME280;31595;51.418;7.572;2023-03-03T04:17:41;101011.28;;;4.67;62.84
45888;BME280;31595;51.418;7.572;2023-03-03T04:20:19;101014.38;;;4.71;61.35
45888;BME280;31595;51.418;7.572;2023-03-03T04:22:48;101021.81;;;4.71;62.54
45888;BME280;31595;51.418;7.572;2023-03-03T04:25:16;101027.59;;;4.69;61.65
45888;BME280;31595;51.418;7.572;2023-03-03T04:27:44;101018.22;;;4.70;62.13
45888;BME280;31595;51.418;7.572;2023-03-03T04:30:14;101024.84;;;4.69;61.97
45888;BME280;31595;51.418;7.572;2023-03-03T04:32:41;101027.53;;;4.64;61.95
45888;BME280;31595;51.418;7.572;2023-03-03T04:35:09;101026.59;;;4.53;62.50
45888;BME280;31595;51.418;7.572;2023-03-03T04:37:38;101023.47;;;4.44;62.85
45888;BME280;31595;51.418;7.572;2023-03-03T04:40:08;101026.22;;;4.39;62.17
45888;BME280;31595;51.418;7.572;2023-03-03T04:42:37;101031.06;;;4.32;62.05
45888;BME280;31595;51.418;7.572;2023-03-03T04:45:06;101021.66;;;4.28;62.23
45888;BME280;31595;51.418;7.572;2023-03-03T04:47:33;101033.84;;;4.32;62.78
45888;BME280;31595;51.418;7.572;2023-03-03T04:50:01;101030.56;;;4.35;63.03
45888;BME280;31595;51.418;7.572;2023-03-03T04:52:28;101029.75;;;4.35;63.27
45888;BME280;31595;51.418;7.572;2023-03-03T04:54:56;101028.38;;;4.37;62.31
45888;BME280;31595;51.418;7.572;2023-03-03T04:57:25;101028.97;;;4.39;62.66
45888;BME280;31595;51.418;7.572;2023-03-03T04:59:53;101028.38;;;4.37;62.54
45888;BME280;31595;51.418;7.572;2023-03-03T05:02:21;101022.31;;;4.35;62.65
45888;BME280;31595;51.418;7.572;2023-03-03T05:04:49;101021.75;;;4.38;63.83
45888;BME280;31595;51.418;7.572;2023-03-03T05:07:16;101022.34;;;4.40;62.51
45888;BME280;31595;51.418;7.572;2023-03-03T05:09:45;101022.91;;;4.42;62.18
45888;BME280;31595;51.418;7.572;2023-03-03T05:12:15;101022.41;;;4.45;62.81
45888;BME280;31595;51.418;7.572;2023-03-03T05:14:44;101018.22;;;4.43;61.80
45888;BME280;31595;51.418;7.572;2023-03-03T05:17:12;101024.97;;;4.30;63.55
45888;BME280;31595;51.418;7.572;2023-03-03T05:19:39;101015.56;;;4.26;62.64
45888;BME280;31595;51.418;7.572;2023-03-03T05:22:07;101017.84;;;4.34;63.86
45888;BME280;31595;51.418;7.572;2023-03-03T05:24:35;101006.31;;;4.37;62.38
45888;BME280;31595;51.418;7.572;2023-03-03T05:27:02;101005.53;;;4.42;62.36
45888;BME280;31595;51.418;7.572;2023-03-03T05:29:30;101013.44;;;4.33;63.28
45888;BME280;31595;51.418;7.572;2023-03-03T05:32:00;101013.38;;;4.28;62.31
45888;BME280;31595;51.418;7.572;2023-03-03T05:34:27;101012.81;;;4.26;63.20
45888;BME280;31595;51.418;7.572;2023-03-03T05:36:55;101024.28;;;4.18;62.23
45888;BME280;31595;51.418;7.572;2023-03-03T05:39:22;101029.50;;;4.14;63.07
45888;BME280;31595;51.418;7.572;2023-03-03T05:41:50;101019.88;;;4.17;63.99
45888;BME280;31595;51.418;7.572;2023-03-03T05:44:18;101024.78;;;4.10;63.88
45888;BME280;31595;51.418;7.572;2023-03-03T05:46:45;101029.81;;;4.18;64.33
45888;BME280;31595;51.418;7.572;2023-03-03T05:49:14;101025.19;;;4.23;62.73
45888;BME280;31595;51.418;7.572;2023-03-03T05:51:47;101030.34;;;4.15;62.90
45888;BME280;31595;51.418;7.572;2023-03-03T05:54:15;101018.47;;;4.14;63.59
45888;BME280;31595;51.418;7.572;2023-03-03T05:56:43;101022.06;;;4.15;62.93
45888;BME280;31595;51.418;7.572;2023-03-03T05:59:17;101035.66;;;4.21;63.36
45888;BME280;31595;51.418;7.572;2023-03-03T06:01:45;101032.69;;;4.28;63.11
45888;BME280;31595;51.418;7.572;2023-03-03T06:04:15;101032.69;;;4.28;62.30
45888;BME280;31595;51.418;7.572;2023-03-03T06:06:43;101031.53;;;4.24;63.08
45888;BME280;31595;51.418;7.572;2023-03-03T06:09:12;101035.44;;;4.28;63.65
45888;BME280;31595;51.418;7.572;2023-03-03T06:11:39;101035.97;;;4.25;62.56
45888;BME280;31595;51.418;7.572;2023-03-03T06:14:07;101045.06;;;4.25;62.46
45888;BME280;31595;51.418;7.572;2023-03-03T06:16:35;101052.63;;;4.35;62.62
45888;BME280;31595;51.418;7.572;2023-03-03T06:19:05;101059.03;;;4.41;63.48
45888;BME280;31595;51.418;7.572;2023-03-03T06:21:34;101053.00;;;4.44;62.69
45888;BME280;31595;51.418;7.572;2023-03-03T06:24:05;101062.94;;;4.45;63.21
45888;BME280;31595;51.418;7.572;2023-03-03T06:26:52;101052.22;;;4.48;61.72
45888;BME280;31595;51.418;7.572;2023-03-03T06:29:20;101055.41;;;4.35;62.04
45888;BME280;31595;51.418;7.572;2023-03-03T06:31:50;101058.28;;;4.23;61.95
45888;BME280;31595;51.418;7.572;2023-03-03T06:34:18;101062.84;;;4.13;62.30
45888;BME280;31595;51.418;7.572;2023-03-03T06:36:47;101063.09;;;4.11;63.67
45888;BME280;31595;51.418;7.572;2023-03-03T06:39:15;101065.97;;;4.21;62.70
45888;BME280;31595;51.418;7.572;2023-03-03T06:41:46;101074.31;;;4.26;63.03
45888;BME280;31595;51.418;7.572;2023-03-03T06:44:14;101067.13;;;4.25;62.72
45888;BME280;31595;51.418;7.572;2023-03-03T06:46:42;101078.69;;;4.22;62.53
45888;BME280;31595;51.418;7.572;2023-03-03T06:49:23;101076.31;;;4.31;63.88
45888;BME280;31595;51.418;7.572;2023-03-03T06:52:11;101085.78;;;4.40;63.31
45888;BME280;31595;51.418;7.572;2023-03-03T06:54:39;101078.59;;;4.39;63.18
45888;BME280;31595;51.418;7.572;2023-03-03T06:57:16;101086.44;;;4.47;62.29
45888;BME280;31595;51.418;7.572;2023-03-03T06:59:44;101079.31;;;4.52;63.02
45888;BME280;31595;51.418;7.572;2023-03-03T07:02:15;101087.00;;;4.50;61.88
45888;BME280;31595;51.418;7.572;2023-03-03T07:04:43;101080.38;;;4.51;62.03
45888;BME280;31595;51.418;7.572;2023-03-03T07:07:17;101079.03;;;4.53;62.47
45888;BME280;31595;51.418;7.572;2023-03-03T07:09:47;101077.88;;;4.49;61.49
45888;BME280;31595;51.418;7.572;2023-03-03T07:12:16;101077.41;;;4.57;61.96
45888;BME280;31595;51.418;7.572;2023-03-03T07:14:45;101075.22;;;4.59;61.24
45888;BME280;31595;51.418;7.572;2023-03-03T07:17:17;101089.13;;;4.70;61.18
45888;BME280;31595;51.418;7.572;2023-03-03T07:19:46;101084.88;;;4.84;60.83
45888;BME280;31595;51.418;7.572;2023-03-03T07:22:18;101088.22;;;4.91;61.11
45888;BME280;31595;51.418;7.572;2023-03-03T07:24:48;101089.69;;;4.99;61.05
45888;BME280;31595;51.418;7.572;2023-03-03T07:27:22;101090.59;;;5.04;60.83
45888;BME280;31595;51.418;7.572;2023-03-03T07:29:51;101098.97;;;5.15;61.21
45888;BME280;31595;51.418;7.572;2023-03-03T07:32:26;101102.66;;;5.25;60.21
45888;BME280;31595;51.418;7.572;2023-03-03T07:34:54;101109.59;;;5.33;60.43
45888;BME280;31595;51.418;7.572;2023-03-03T07:37:29;101106.66;;;5.45;60.07
45888;BME280;31595;51.418;7.572;2023-03-03T07:39:58;101112.75;;;5.47;59.46
45888;BME280;31595;51.418;7.572;2023-03-03T07:42:28;101123.47;;;5.38;59.75
45888;BME280;31595;51.418;7.572;2023-03-03T07:45:02;101125.97;;;5.40;59.19
45888;BME280;31595;51.418;7.572;2023-03-03T07:47:46;101125.75;;;5.46;59.73
45888;BME280;31595;51.418;7.572;2023-03-03T07:50:17;101126.56;;;5.47;59.34
45888;BME280;31595;51.418;7.572;2023-03-03T07:52:53;101131.28;;;5.46;59.11
45888;BME280;31595;51.418;7.572;2023-03-03T07:55:30;101135.44;;;5.49;59.24
45888;BME280;31595;51.418;7.572;2023-03-03T07:58:16;101126.41;;;5.59;58.58
45888;BME280;31595;51.418;7.572;2023-03-03T08:03:53;101134.22;;;5.72;58.23
45888;BME280;31595;51.418;7.572;2023-03-03T08:06:36;101134.22;;;5.72;57.54
45888;BME280;31595;51.418;7.572;2023-03-03T08:09:26;101141.63;;;5.66;58.46
45888;BME280;31595;51.418;7.572;2023-03-03T08:11:58;101148.28;;;5.70;57.98
45888;BME280;31595;51.418;7.572;2023-03-03T08:14:29;101145.59;;;5.76;58.22
45888;BME280;31595;51.418;7.572;2023-03-03T08:16:58;101148.59;;;5.74;57.27
45888;BME280;31595;51.418;7.572;2023-03-03T08:19:27;101146.41;;;5.76;57.53
45888;BME280;31595;51.418;7.572;2023-03-03T08:21:58;101146.09;;;5.73;58.01
45888;BME280;31595;51.418;7.572;2023-03-03T08:24:28;101149.66;;;5.63;58.42
45888;BME280;31595;51.418;7.572;2023-03-03T08:26:55;101146.34;;;5.71;58.15
45888;BME280;31595;51.418;7.572;2023-03-03T08:29:23;101141.19;;;5.80;57.59
45888;BME280;31595;51.418;7.572;2023-03-03T08:31:50;101149.84;;;5.94;57.06
45888;BME280;31595;51.418;7.572;2023-03-03T08:34:18;101151.78;;;5.93;56.93
45888;BME280;31595;51.418;7.572;2023-03-03T08:36:45;101153.78;;;5.98;57.57
45888;BME280;31595;51.418;7.572;2023-03-03T08:39:14;101151.31;;;6.06;57.36
45888;BME280;31595;51.418;7.572;2023-03-03T08:41:43;101159.69;;;6.17;56.36
45888;BME280;31595;51.418;7.572;2023-03-03T08:47:35;101159.66;;;6.12;56.11
45888;BME280;31595;51.418;7.572;2023-03-03T08:50:08;101167.47;;;6.25;56.73
45888;BME280;31595;51.418;7.572;2023-03-03T08:52:36;101171.88;;;6.16;56.62
45888;BME280;31595;51.418;7.572;2023-03-03T08:55:04;101175.75;;;6.20;57.01
45888;BME280;31595;51.418;7.572;2023-03-03T08:57:33;101176.59;;;6.25;56.59
45888;BME280;31595;51.418;7.572;2023-03-03T09:00:00;101174.69;;;6.26;56.29
45888;BME280;31595;51.418;7.572;2023-03-03T09:02:29;101172.19;;;6.29;56.51
45888;BME280;31595;51.418;7.572;2023-03-03T09:04:56;101175.78;;;6.25;56.07
45888;BME280;31595;51.418;7.572;2023-03-03T09:07:23;101180.16;;;5.78;57.42
45888;BME280;31595;51.418;7.572;2023-03-03T09:09:51;101184.28;;;5.76;57.23
45888;BME280;31595;51.418;7.572;2023-03-03T09:12:22;101183.63;;;5.96;56.73
45888;BME280;31595;51.418;7.572;2023-03-03T09:14:55;101179.09;;;6.22;56.52
45888;BME280;31595;51.418;7.572;2023-03-03T09:17:30;101190.19;;;6.27;56.27
45888;BME280;31595;51.418;7.572;2023-03-03T09:20:00;101181.94;;;6.37;55.92
45888;BME280;31595;51.418;7.572;2023-03-03T09:22:41;101175.00;;;6.35;55.71
45888;BME280;31595;51.418;7.572;2023-03-03T09:25:21;101177.03;;;6.49;55.26
45888;BME280;31595;51.418;7.572;2023-03-03T09:27:51;101175.13;;;6.55;55.24
45888;BME280;31595;51.418;7.572;2023-03-03T09:30:33;101170.44;;;6.66;54.84
45888;BME280;31595;51.418;7.572;2023-03-03T09:33:19;101179.88;;;6.70;55.10
45888;BME280;31595;51.418;7.572;2023-03-03T09:35:50;101176.81;;;6.66;54.27
45888;BME280;31595;51.418;7.572;2023-03-03T09:38:25;101172.13;;;6.77;54.28
45888;BME280;31595;51.418;7.572;2023-03-03T09:44:33;101182.69;;;6.90;54.53
45888;BME280;31595;51.418;7.572;2023-03-03T09:47:19;101173.88;;;7.04;53.63
45888;BME280;31595;51.418;7.572;2023-03-03T09:49:57;101183.31;;;7.08;53.78
45888;BME280;31595;51.418;7.572;2023-03-03T09:52:36;101186.09;;;7.28;52.79
45888;BME280;31595;51.418;7.572;2023-03-03T09:55:19;101188.03;;;7.28;53.01
45888;BME280;31595;51.418;7.572;2023-03-03T09:58:00;101194.72;;;7.27;52.84
45888;BME280;31595;51.418;7.572;2023-03-03T10:00:44;101199.66;;;7.09;52.61
45888;BME280;31595;51.418;7.572;2023-03-03T10:06:24;101205.25;;;7.35;52.45
45888;BME280;31595;51.418;7.572;2023-03-03T10:09:34;101199.97;;;7.28;52.89
45888;BME280;31595;51.418;7.572;2023-03-03T10:12:10;101213.25;;;7.26;53.37
45888;BME280;31595;51.418;7.572;2023-03-03T10:15:01;101206.06;;;7.41;52.46
45888;BME280;31595;51.418;7.572;2023-03-03T10:17:40;101210.25;;;7.43;52.52
45888;BME280;31595;51.418;7.572;2023-03-03T10:20:28;101212.47;;;7.46;52.37
45888;BME280;31595;51.418;7.572;2023-03-03T10:23:06;101210.53;;;7.52;52.73
45888;BME280;31595;51.418;7.572;2023-03-03T10:25:52;101215.75;;;7.28;52.15
45888;BME280;31595;51.418;7.572;2023-03-03T10:28:44;101215.25;;;7.62;52.52
45888;BME280;31595;51.418;7.572;2023-03-03T10:31:18;101219.97;;;7.66;51.30
45888;BME280;31595;51.418;7.572;2023-03-03T10:33:56;101213.31;;;7.83;51.32
45888;BME280;31595;51.418;7.572;2023-03-03T10:36:48;101212.50;;;7.87;51.04
45888;BME280;31595;51.418;7.572;2023-03-03T10:39:45;101217.75;;;7.73;50.77
45888;BME280;31595;51.418;7.572;2023-03-03T10:42:33;101226.63;;;7.70;51.43
45888;BME280;31595;51.418;7.572;2023-03-03T10:48:09;101224.13;;;7.95;50.64
45888;BME280;31595;51.418;7.572;2023-03-03T10:50:49;101231.34;;;8.01;49.94
45888;BME280;31595;51.418;7.572;2023-03-03T10:53:44;101223.84;;;8.06;50.69
45888;BME280;31595;51.418;7.572;2023-03-03T10:56:31;101226.63;;;8.11;49.73
45888;BME280;31595;51.418;7.572;2023-03-03T10:59:15;101226.06;;;8.09;49.57
45888;BME280;31595;51.418;7.572;2023-03-03T11:01:55;101219.41;;;8.16;50.04
45888;BME280;31595;51.418;7.572;2023-03-03T11:04:44;101215.50;;;8.17;49.35
45888;BME280;31595;51.418;7.572;2023-03-03T11:07:25;101221.63;;;8.13;50.47
45888;BME280;31595;51.418;7.572;2023-03-03T11:10:19;101229.09;;;8.18;49.42
45888;BME280;31595;51.418;7.572;2023-03-03T11:12:55;101221.03;;;8.32;48.97
45888;BME280;31595;51.418;7.572;2023-03-03T11:15:34;101211.59;;;8.38;49.84
45888;BME280;31595;51.418;7.572;2023-03-03T11:18:16;101214.88;;;8.56;49.47
45888;BME280;31595;51.418;7.572;2023-03-03T11:20:48;101207.41;;;8.36;49.60
45888;BME280;31595;51.418;7.572;2023-03-03T11:23:34;101214.03;;;8.65;48.78
45888;BME280;31595;51.418;7.572;2023-03-03T11:26:10;101201.47;;;8.78;48.52
45888;BME280;31595;51.418;7.572;2023-03-03T11:32:10;101204.47;;;8.92;48.34
45888;BME280;31595;51.418;7.572;2023-03-03T11:34:55;101204.13;;;8.99;48.14
45888;BME280;31595;51.418;7.572;2023-03-03T11:37:28;101209.31;;;8.66;48.65
45888;BME280;31595;51.418;7.572;2023-03-03T11:40:14;101208.16;;;8.67;48.68
45888;BME280;31595;51.418;7.572;2023-03-03T11:42:54;101210.91;;;8.82;47.45
45888;BME280;31595;51.418;7.572;2023-03-03T11:45:31;101212.78;;;8.97;47.56
45888;BME280;31595;51.418;7.572;2023-03-03T11:48:05;101198.03;;;9.02;47.20
45888;BME280;31595;51.418;7.572;2023-03-03T11:50:39;101195.19;;;9.07;46.57
45888;BME280;31595;51.418;7.572;2023-03-03T11:53:25;101199.94;;;9.06;46.45
45888;BME280;31595;51.418;7.572;2023-03-03T11:56:03;101194.94;;;9.08;47.04
45888;BME280;31595;51.418;7.572;2023-03-03T11:58:38;101193.75;;;9.20;47.82
45888;BME280;31595;51.418;7.572;2023-03-03T12:01:17;101192.19;;;9.43;46.41
45888;BME280;31595;51.418;7.572;2023-03-03T12:03:54;101195.03;;;9.38;45.91
45888;BME280;31595;51.418;7.572;2023-03-03T12:06:32;101188.25;;;9.49;46.64
45888;BME280;31595;51.418;7.572;2023-03-03T12:12:24;101173.13;;;8.86;46.79
45888;BME280;31595;51.418;7.572;2023-03-03T12:15:05;101174.66;;;9.03;46.40
45888;BME280;31595;51.418;7.572;2023-03-03T12:18:02;101175.25;;;9.00;47.39
45888;BME280;31595;51.418;7.572;2023-03-03T12:20:42;101170.47;;;9.10;47.58
45888;BME280;31595;51.418;7.572;2023-03-03T12:23:25;101165.56;;;9.37;47.02
45888;BME280;31595;51.418;7.572;2023-03-03T12:26:04;101165.44;;;9.52;45.72
45888;BME280;31595;51.418;7.572;2023-03-03T12:28:37;101166.72;;;9.65;46.31
45888;BME280;31595;51.418;7.572;2023-03-03T12:31:17;101160.81;;;9.77;46.47
45888;BME280;31595;51.418;7.572;2023-03-03T12:33:54;101158.31;;;9.75;45.94
45888;BME280;31595;51.418;7.572;2023-03-03T12:36:45;101156.94;;;9.72;46.58
45888;BME280;31595;51.418;7.572;2023-03-03T12:39:26;101162.97;;;9.80;46.76
45888;BME280;31595;51.418;7.572;2023-03-03T12:42:27;101159.31;;;9.84;45.17
45888;BME280;31595;51.418;7.572;2023-03-03T12:45:06;101161.00;;;9.85;45.92
45888;BME280;31595;51.418;7.572;2023-03-03T12:48:00;101161.34;;;9.79;46.74
45888;BME280;31595;51.418;7.572;2023-03-03T12:50:42;101164.75;;;9.70;46.50
45888;BME280;31595;51.418;7.572;2023-03-03T12:53:24;101165.28;;;9.72;45.17
45888;BME280;31595;51.418;7.572;2023-03-03T12:56:00;101158.84;;;9.77;45.69
45888;BME280;31595;51.418;7.572;2023-03-03T12:58:43;101158.97;;;9.91;46.28
45888;BME280;31595;51.418;7.572;2023-03-03T13:01:29;101168.63;;;10.04;44.79
45888;BME280;31595;51.418;7.572;2023-03-03T13:04:07;101169.66;;;10.08;45.40
45888;BME280;31595;51.418;7.572;2023-03-03T13:06:52;101158.06;;;10.30;45.59
45888;BME280;31595;51.418;7.572;2023-03-03T13:09:42;101152.53;;;10.49;44.21
45888;BME280;31595;51.418;7.572;2023-03-03T13:12:29;101151.09;;;10.27;43.78
45888;BME280;31595;51.418;7.572;2023-03-03T13:15:04;101158.31;;;10.28;45.36
45888;BME280;31595;51.418;7.572;2023-03-03T13:17:39;101153.19;;;10.41;44.83
45888;BME280;31595;51.418;7.572;2023-03-03T13:20:20;101160.19;;;10.38;44.30
45888;BME280;31595;51.418;7.572;2023-03-03T13:23:05;101151.34;;;10.31;45.12
45888;BME280;31595;51.418;7.572;2023-03-03T13:25:50;101159.28;;;10.43;44.28
45888;BME280;31595;51.418;7.572;2023-03-03T13:28:29;101161.25;;;10.42;45.09
45888;BME280;31595;51.418;7.572;2023-03-03T13:31:02;101161.72;;;10.49;44.53
45888;BME280;31595;51.418;7.572;2023-03-03T13:33:34;101165.53;;;10.59;44.33
45888;BME280;31595;51.418;7.572;2023-03-03T13:36:13;101157.69;;;10.61;44.45
45888;BME280;31595;51.418;7.572;2023-03-03T13:38:45;101154.06;;;10.60;44.80
45888;BME280;31595;51.418;7.572;2023-03-03T13:41:21;101153.84;;;10.56;44.12
45888;BME280;31595;51.418;7.572;2023-03-03T13:43:55;101152.25;;;10.50;43.45
45888;BME280;31595;51.418;7.572;2023-03-03T13:46:39;101150.56;;;10.49;44.32
45888;BME280;31595;51.418;7.572;2023-03-03T13:49:28;101152.06;;;10.42;43.15
45888;BME280;31595;51.418;7.572;2023-03-03T13:52:02;101143.91;;;10.50;44.27
45888;BME280;31595;51.418;7.572;2023-03-03T13:57:41;101141.97;;;10.70;44.38
45888;BME280;31595;51.418;7.572;2023-03-03T14:00:24;101138.38;;;10.88;42.36